Time;durP1;ratioP1;P1;durP2;ratioP2;P2;SDS_P1;SDS_P2;PMS_P1;PMS_P2;Temp;Humidity;BMP_temperature;BMP_pressure;BME280_temperature;BME280_humidity;BME280_pressure;Samples;Min_cycle;Max_cycle;Signal;HPM_P1;HPM_P2
2021/01/05 00:01:44;;;;;;;17.58;11.18;;;;;;;;;;5005901;28;20269;-75
2021/01/05 00:04:10;;;;;;;17.73;11.85;;;;;;;;;;4989646;28;20203;-75
2021/01/05 00:06:36;;;;;;;13.40;11.70;;;;;;;;;;4991059;28;20172;-75
2021/01/05 00:09:01;;;;;;;15.73;12.95;;;;;;;;;;4987847;28;20522;-74
2021/01/05 00:11:27;;;;;;;18.00;13.33;;;;;;;;;;4990889;28;20639;-75
2021/01/05 00:13:53;;;;;;;16.87;12.73;;;;;;;;;;4987769;28;21071;-74
2021/01/05 00:16:19;;;;;;;16.50;13.07;;;;;;;;;;4989654;28;20435;-75
2021/01/05 00:18:45;;;;;;;17.80;12.60;;;;;;;;;;4990263;28;20454;-75
2021/01/05 00:21:11;;;;;;;16.23;12.57;;;;;;;;;;4990836;28;20465;-75
2021/01/05 00:23:37;;;;;;;16.23;12.83;;;;;;;;;;4990773;28;20465;-74
2021/01/05 00:26:03;;;;;;;18.07;12.60;;;;;;;;;;4989402;28;20434;-75
2021/01/05 00:28:29;;;;;;;18.17;12.70;;;;;;;;;;4990048;28;20492;-75
2021/01/05 00:30:55;;;;;;;17.67;11.33;;;;;;;;;;4990372;28;20462;-75
2021/01/05 00:33:21;;;;;;;16.77;12.75;;;;;;;;;;4986517;28;20470;-75
2021/01/05 00:35:47;;;;;;;16.77;11.47;;;;;;;;;;4989956;28;20180;-75
2021/01/05 00:38:13;;;;;;;12.63;11.20;;;;;;;;;;4989111;28;20961;-75
2021/01/05 00:40:39;;;;;;;19.13;12.43;;;;;;;;;;4990883;28;20422;-75
2021/01/05 00:43:05;;;;;;;16.75;11.43;;;;;;;;;;4988520;28;20741;-75
2021/01/05 00:45:32;;;;;;;15.82;12.90;;;;;;;;;;4989018;28;20190;-74
2021/01/05 00:47:59;;;;;;;15.00;12.05;;;;;;;;;;4986416;28;20795;-75
2021/01/05 00:50:26;;;;;;;16.10;12.05;;;;;;;;;;4988943;28;20188;-75
2021/01/05 00:52:52;;;;;;;17.92;12.18;;;;;;;;;;4990741;28;20254;-75
2021/01/05 00:55:18;;;;;;;18.20;12.25;;;;;;;;;;4992904;28;20701;-74
2021/01/05 00:57:44;;;;;;;15.25;11.23;;;;;;;;;;4994070;28;20266;-75
2021/01/05 01:00:20;;;;;;;16.70;11.82;;;;;;;;;;4997474;28;20319;-75
2021/01/05 01:02:50;;;;;;;19.25;12.63;;;;;;;;;;4987321;28;20229;-74
2021/01/05 01:05:17;;;;;;;16.23;12.23;;;;;;;;;;4984589;28;20180;-75
2021/01/05 01:07:43;;;;;;;18.30;12.98;;;;;;;;;;4986913;28;20187;-75
2021/01/05 01:10:09;;;;;;;16.40;10.57;;;;;;;;;;4994370;28;20171;-75
2021/01/05 01:12:35;;;;;;;17.63;12.35;;;;;;;;;;4993083;28;20458;-75
2021/01/05 01:15:01;;;;;;;15.57;11.95;;;;;;;;;;4992552;28;20754;-75
2021/01/05 01:17:27;;;;;;;16.20;11.60;;;;;;;;;;4992613;28;20223;-74
2021/01/05 01:19:54;;;;;;;14.05;11.15;;;;;;;;;;4993887;28;20433;-75
2021/01/05 01:22:22;;;;;;;15.63;11.35;;;;;;;;;;4993926;28;20211;-76
2021/01/05 01:24:48;;;;;;;17.35;12.52;;;;;;;;;;4980609;28;20194;-76
2021/01/05 01:27:14;;;;;;;16.60;12.35;;;;;;;;;;4996291;28;20187;-75
2021/01/05 01:29:40;;;;;;;15.52;12.23;;;;;;;;;;4999479;28;20646;-75
2021/01/05 01:32:06;;;;;;;14.48;11.77;;;;;;;;;;4992218;28;20258;-75
2021/01/05 01:34:32;;;;;;;17.90;11.77;;;;;;;;;;4992244;28;20275;-75
2021/01/05 01:37:00;;;;;;;17.23;12.50;;;;;;;;;;4993349;28;20710;-74
2021/01/05 01:39:27;;;;;;;19.20;13.35;;;;;;;;;;4993948;28;20426;-75
2021/01/05 01:41:53;;;;;;;17.52;12.00;;;;;;;;;;4992503;28;20742;-74
2021/01/05 01:44:23;;;;;;;16.17;11.75;;;;;;;;;;4992438;28;20207;-74
2021/01/05 01:46:51;;;;;;;14.65;10.90;;;;;;;;;;4993361;28;20179;-75
2021/01/05 01:49:17;;;;;;;14.95;10.77;;;;;;;;;;4991590;28;20187;-75
2021/01/05 01:51:44;;;;;;;18.05;11.50;;;;;;;;;;4993614;28;20217;-74
2021/01/05 01:54:10;;;;;;;18.58;12.23;;;;;;;;;;4992669;28;20274;-75
2021/01/05 01:56:38;;;;;;;15.87;11.60;;;;;;;;;;4994216;28;20397;-75
2021/01/05 01:59:23;;;;;;;15.30;11.52;;;;;;;;;;4984303;28;20449;-75
2021/01/05 02:01:59;;;;;;;14.82;12.00;;;;;;;;;;4989830;28;20211;-75
2021/01/05 02:04:44;;;;;;;15.43;12.18;;;;;;;;;;4988482;28;20382;-74
2021/01/05 02:07:29;;;;;;;18.00;12.00;;;;;;;;;;4972846;28;20180;-74
2021/01/05 02:09:57;;;;;;;17.10;12.05;;;;;;;;;;4987375;28;20176;-75
2021/01/05 02:12:35;;;;;;;17.33;12.65;;;;;;;;;;4990466;28;20885;-75
2021/01/05 02:15:15;;;;;;;20.60;12.88;;;;;;;;;;4994726;28;20266;-75
2021/01/05 02:17:59;;;;;;;17.27;12.15;;;;;;;;;;4984126;28;20175;-75
2021/01/05 02:20:27;;;;;;;17.42;12.65;;;;;;;;;;4984135;28;20187;-75
2021/01/05 02:23:16;;;;;;;15.98;11.48;;;;;;;;;;4984738;28;20208;-75
2021/01/05 02:25:45;;;;;;;19.15;12.57;;;;;;;;;;4990519;28;20257;-75
2021/01/05 02:28:13;;;;;;;18.27;12.73;;;;;;;;;;4992752;28;20211;-75
2021/01/05 02:30:44;;;;;;;18.23;12.85;;;;;;;;;;4992707;28;20181;-75
2021/01/05 02:33:18;;;;;;;14.95;11.55;;;;;;;;;;4992824;28;20239;-75
2021/01/05 02:35:47;;;;;;;16.90;11.50;;;;;;;;;;4991060;28;20180;-75
2021/01/05 02:38:19;;;;;;;20.95;13.65;;;;;;;;;;4992442;28;20183;-75
2021/01/05 02:40:45;;;;;;;16.08;13.50;;;;;;;;;;4991750;28;20215;-75
2021/01/05 02:43:30;;;;;;;18.55;12.95;;;;;;;;;;4991775;28;20622;-75
2021/01/05 02:46:14;;;;;;;17.40;12.73;;;;;;;;;;4986984;28;20266;-75
2021/01/05 02:48:40;;;;;;;14.88;10.88;;;;;;;;;;4984595;28;20270;-75
2021/01/05 02:51:15;;;;;;;17.77;12.63;;;;;;;;;;4989032;28;20278;-75
2021/01/05 02:54:07;;;;;;;19.25;13.60;;;;;;;;;;4992303;28;20462;-75
2021/01/05 02:56:56;;;;;;;17.73;11.90;;;;;;;;;;4992214;28;20333;-75
2021/01/05 02:59:22;;;;;;;16.42;12.30;;;;;;;;;;4992509;28;20183;-75
2021/01/05 03:02:07;;;;;;;19.67;12.97;;;;;;;;;;4996412;28;20261;-75
2021/01/05 03:04:33;;;;;;;15.60;11.40;;;;;;;;;;4991105;28;20509;-75
2021/01/05 03:07:05;;;;;;;19.83;13.53;;;;;;;;;;4992125;28;20259;-75
2021/01/05 03:09:43;;;;;;;21.08;13.93;;;;;;;;;;4992157;28;20427;-75
2021/01/05 03:12:27;;;;;;;17.17;13.25;;;;;;;;;;4991082;28;20191;-75
2021/01/05 03:15:11;;;;;;;15.55;11.93;;;;;;;;;;4995093;28;20199;-75
2021/01/05 03:17:39;;;;;;;20.13;12.20;;;;;;;;;;4990389;28;20242;-75
2021/01/05 03:20:09;;;;;;;17.98;12.45;;;;;;;;;;4998354;28;20230;-75
2021/01/05 03:22:37;;;;;;;17.45;13.27;;;;;;;;;;4991949;28;20211;-75
2021/01/05 03:25:05;;;;;;;19.58;12.65;;;;;;;;;;4991281;28;20737;-75
2021/01/05 03:27:31;;;;;;;19.73;12.60;;;;;;;;;;4992048;28;20198;-75
2021/01/05 03:30:01;;;;;;;22.60;13.27;;;;;;;;;;4990619;28;20193;-75
2021/01/05 03:32:27;;;;;;;20.08;12.85;;;;;;;;;;4981646;28;20215;-75
2021/01/05 03:34:53;;;;;;;24.42;12.25;;;;;;;;;;5020139;22;20262;-77
2021/01/05 03:37:19;;;;;;;17.27;12.57;;;;;;;;;;5002414;28;20187;-77
2021/01/05 03:39:45;;;;;;;21.63;14.73;;;;;;;;;;4994184;28;20422;-77
2021/01/05 03:42:10;;;;;;;20.40;12.90;;;;;;;;;;4977607;28;20475;-77
2021/01/05 03:44:36;;;;;;;18.50;11.97;;;;;;;;;;4978327;28;20461;-76
2021/01/05 03:47:03;;;;;;;21.43;12.60;;;;;;;;;;4979761;28;20449;-76
2021/01/05 03:49:29;;;;;;;15.25;12.70;;;;;;;;;;4978981;28;20446;-77
2021/01/05 03:51:55;;;;;;;20.73;13.73;;;;;;;;;;4990631;28;20207;-77
2021/01/05 03:54:22;;;;;;;17.75;11.65;;;;;;;;;;4992377;28;20485;-77
2021/01/05 03:56:48;;;;;;;18.38;12.45;;;;;;;;;;4985420;28;20190;-77
2021/01/05 03:59:14;;;;;;;19.33;12.40;;;;;;;;;;4989346;28;20608;-77
2021/01/05 04:01:40;;;;;;;17.37;11.77;;;;;;;;;;4980265;28;20211;-76
2021/01/05 04:04:06;;;;;;;17.37;12.80;;;;;;;;;;4983243;28;20538;-76
2021/01/05 04:06:32;;;;;;;16.97;13.27;;;;;;;;;;4981315;28;20943;-76
2021/01/05 04:08:58;;;;;;;19.52;13.63;;;;;;;;;;4987100;28;20450;-77
2021/01/05 04:11:23;;;;;;;17.47;12.20;;;;;;;;;;4983488;28;20268;-77
2021/01/05 04:13:49;;;;;;;16.83;11.77;;;;;;;;;;5005756;28;20408;-77
2021/01/05 04:16:15;;;;;;;19.30;13.67;;;;;;;;;;4991550;28;20450;-76
2021/01/05 04:18:41;;;;;;;16.93;12.97;;;;;;;;;;4982871;28;20511;-77
2021/01/05 04:21:07;;;;;;;21.20;12.77;;;;;;;;;;4990139;28;20461;-77
2021/01/05 04:23:33;;;;;;;19.80;13.40;;;;;;;;;;4980363;28;20427;-77
2021/01/05 04:25:59;;;;;;;17.00;11.30;;;;;;;;;;4974436;28;20448;-77
2021/01/05 04:28:25;;;;;;;20.67;13.20;;;;;;;;;;4984272;28;20848;-76
2021/01/05 04:30:51;;;;;;;20.03;13.40;;;;;;;;;;4993986;28;20199;-76
2021/01/05 04:33:17;;;;;;;19.75;13.48;;;;;;;;;;4988814;28;20482;-77
2021/01/05 04:35:43;;;;;;;20.00;14.48;;;;;;;;;;4982168;28;20577;-76
2021/01/05 04:38:09;;;;;;;17.70;11.70;;;;;;;;;;4976199;28;20190;-75
2021/01/05 04:40:35;;;;;;;16.33;14.02;;;;;;;;;;4991920;28;20866;-76
2021/01/05 04:43:04;;;;;;;17.80;10.67;;;;;;;;;;4994744;28;20226;-75
2021/01/05 04:45:30;;;;;;;22.38;12.63;;;;;;;;;;4986555;28;20513;-76
2021/01/05 04:48:11;;;;;;;16.27;12.00;;;;;;;;;;4981177;28;20187;-76
2021/01/05 04:50:42;;;;;;;19.13;12.32;;;;;;;;;;4993434;28;20183;-76
2021/01/05 04:53:16;;;;;;;18.38;13.20;;;;;;;;;;4992273;28;20219;-77
2021/01/05 04:55:57;;;;;;;21.98;12.85;;;;;;;;;;4976633;28;20211;-76
2021/01/05 04:58:33;;;;;;;19.30;12.25;;;;;;;;;;5001387;28;20196;-77
2021/01/05 05:01:00;;;;;;;20.10;13.43;;;;;;;;;;4998357;28;20210;-75
2021/01/05 05:03:43;;;;;;;22.48;14.55;;;;;;;;;;4989865;28;20191;-76
2021/01/05 05:06:21;;;;;;;20.15;12.45;;;;;;;;;;4988487;28;20177;-77
2021/01/05 05:09:05;;;;;;;18.48;13.07;;;;;;;;;;4994308;28;20232;-76
2021/01/05 05:11:42;;;;;;;21.05;12.88;;;;;;;;;;4992762;28;20195;-76
2021/01/05 05:14:29;;;;;;;18.45;13.52;;;;;;;;;;4985925;28;20208;-76
2021/01/05 05:17:07;;;;;;;22.70;14.07;;;;;;;;;;4971926;28;20207;-77
2021/01/05 05:19:36;;;;;;;17.70;12.15;;;;;;;;;;4976682;28;20227;-77
2021/01/05 05:22:08;;;;;;;21.40;14.00;;;;;;;;;;4976548;28;20263;-76
2021/01/05 05:25:00;;;;;;;23.25;14.30;;;;;;;;;;4976031;28;20267;-77
2021/01/05 05:27:32;;;;;;;19.77;13.38;;;;;;;;;;4980434;28;20200;-77
2021/01/05 05:30:27;;;;;;;23.55;14.85;;;;;;;;;;4992331;28;20720;-77
2021/01/05 05:32:55;;;;;;;21.73;14.07;;;;;;;;;;4981028;28;20187;-76
2021/01/05 05:35:37;;;;;;;22.20;14.32;;;;;;;;;;4983130;28;20586;-77
2021/01/05 05:38:06;;;;;;;20.25;13.75;;;;;;;;;;4993814;28;20223;-77
2021/01/05 05:40:47;;;;;;;19.00;13.88;;;;;;;;;;4989174;28;20176;-75
2021/01/05 05:43:13;;;;;;;21.45;12.05;;;;;;;;;;4974608;28;20172;-74
2021/01/05 05:45:42;;;;;;;18.48;13.65;;;;;;;;;;4982157;28;20205;-75
2021/01/05 05:48:19;;;;;;;19.92;13.85;;;;;;;;;;4993459;28;20964;-75
2021/01/05 05:50:44;;;;;;;21.90;14.43;;;;;;;;;;4997999;28;20325;-76
2021/01/05 05:53:22;;;;;;;20.63;13.20;;;;;;;;;;5001338;28;20191;-75
2021/01/05 05:55:51;;;;;;;19.33;14.18;;;;;;;;;;4997638;28;20441;-76
2021/01/05 05:58:19;;;;;;;25.27;15.63;;;;;;;;;;4992209;28;20275;-76
2021/01/05 06:00:47;;;;;;;20.85;15.60;;;;;;;;;;4977941;28;20180;-76
2021/01/05 06:03:14;;;;;;;21.48;14.13;;;;;;;;;;4993149;28;20175;-75
2021/01/05 06:05:41;;;;;;;19.80;13.68;;;;;;;;;;4988994;28;20687;-74
2021/01/05 06:08:08;;;;;;;22.83;14.27;;;;;;;;;;4993492;28;20175;-74
2021/01/05 06:10:35;;;;;;;18.33;12.73;;;;;;;;;;4994779;28;20184;-75
2021/01/05 06:13:01;;;;;;;18.92;12.60;;;;;;;;;;4993187;28;20182;-75
2021/01/05 06:15:34;;;;;;;23.20;15.35;;;;;;;;;;4992981;28;20208;-75
2021/01/05 06:18:01;;;;;;;19.15;12.98;;;;;;;;;;4991863;28;20599;-75
2021/01/05 06:20:27;;;;;;;20.92;14.10;;;;;;;;;;4991567;28;20211;-74
2021/01/05 06:22:53;;;;;;;19.30;14.60;;;;;;;;;;4993166;28;20716;-74
2021/01/05 06:25:19;;;;;;;17.00;12.77;;;;;;;;;;4992437;28;20439;-76
2021/01/05 06:27:44;;;;;;;26.00;13.50;;;;;;;;;;4993299;28;20180;-75
2021/01/05 06:30:11;;;;;;;21.87;13.57;;;;;;;;;;4992127;28;20239;-74
2021/01/05 06:32:37;;;;;;;18.13;12.65;;;;;;;;;;4991516;28;20422;-74
2021/01/05 06:35:03;;;;;;;19.67;12.38;;;;;;;;;;4975780;28;20235;-74
2021/01/05 06:37:29;;;;;;;18.23;12.75;;;;;;;;;;4973999;28;20188;-75
2021/01/05 06:39:55;;;;;;;19.73;13.13;;;;;;;;;;4973733;28;20720;-75
2021/01/05 06:42:21;;;;;;;17.90;12.23;;;;;;;;;;4973622;28;20557;-75
2021/01/05 06:44:47;;;;;;;21.30;12.70;;;;;;;;;;4984831;28;20346;-74
2021/01/05 06:47:13;;;;;;;22.27;14.33;;;;;;;;;;4992743;28;20419;-74
2021/01/05 06:49:40;;;;;;;16.85;11.68;;;;;;;;;;4974394;28;20485;-75
2021/01/05 06:52:06;;;;;;;18.70;12.18;;;;;;;;;;4972627;28;20195;-74
2021/01/05 06:54:32;;;;;;;24.38;13.65;;;;;;;;;;4987518;28;20849;-75
2021/01/05 06:56:58;;;;;;;19.88;13.43;;;;;;;;;;4992476;28;20191;-74
2021/01/05 06:59:25;;;;;;;20.58;13.40;;;;;;;;;;4992322;28;20207;-74
2021/01/05 07:01:52;;;;;;;20.83;14.20;;;;;;;;;;4991672;28;20218;-75
2021/01/05 07:04:18;;;;;;;17.25;12.90;;;;;;;;;;4991942;28;20269;-74
2021/01/05 07:06:44;;;;;;;20.55;13.82;;;;;;;;;;4992416;28;20655;-75
2021/01/05 07:09:11;;;;;;;23.60;14.63;;;;;;;;;;4991044;28;20184;-75
2021/01/05 07:11:37;;;;;;;21.83;13.07;;;;;;;;;;4975522;28;20611;-74
2021/01/05 07:14:03;;;;;;;20.73;15.85;;;;;;;;;;4979479;28;20271;-74
2021/01/05 07:16:29;;;;;;;21.52;14.07;;;;;;;;;;4972509;28;20180;-74
2021/01/05 07:18:55;;;;;;;20.60;12.53;;;;;;;;;;4986463;28;20194;-74
2021/01/05 07:21:30;;;;;;;20.03;12.73;;;;;;;;;;4992184;28;20455;-75
2021/01/05 07:23:56;;;;;;;19.52;13.02;;;;;;;;;;4991775;28;20453;-74
2021/01/05 07:26:22;;;;;;;22.23;14.40;;;;;;;;;;4992189;28;20176;-74
2021/01/05 07:28:48;;;;;;;24.40;13.40;;;;;;;;;;4973972;28;20461;-75
2021/01/05 07:31:14;;;;;;;20.70;13.52;;;;;;;;;;4986353;28;20441;-76
2021/01/05 07:33:40;;;;;;;18.70;13.20;;;;;;;;;;4991732;28;20719;-75
2021/01/05 07:36:07;;;;;;;23.45;14.98;;;;;;;;;;4991798;28;20195;-74
2021/01/05 07:38:33;;;;;;;18.85;13.35;;;;;;;;;;4992223;28;20674;-74
2021/01/05 07:40:59;;;;;;;20.00;12.90;;;;;;;;;;4990317;28;20183;-74
2021/01/05 07:43:25;;;;;;;17.60;12.77;;;;;;;;;;4991669;28;20419;-74
2021/01/05 07:45:51;;;;;;;20.55;13.15;;;;;;;;;;4991109;28;20206;-74
2021/01/05 07:48:17;;;;;;;18.52;12.45;;;;;;;;;;4985409;28;20739;-74
2021/01/05 07:50:43;;;;;;;20.42;14.13;;;;;;;;;;4972278;28;20226;-75
2021/01/05 07:53:09;;;;;;;18.90;11.48;;;;;;;;;;4972366;28;20184;-74
2021/01/05 07:55:35;;;;;;;19.48;14.23;;;;;;;;;;4972284;28;20201;-74
2021/01/05 07:58:01;;;;;;;18.63;11.73;;;;;;;;;;4973341;28;20263;-74
2021/01/05 08:00:28;;;;;;;26.08;14.10;;;;;;;;;;4987157;28;20422;-74
2021/01/05 08:02:55;;;;;;;22.67;15.07;;;;;;;;;;4981760;28;20211;-74
2021/01/05 08:05:23;;;;;;;25.38;16.10;;;;;;;;;;4969745;28;20254;-74
2021/01/05 08:07:49;;;;;;;18.75;13.20;;;;;;;;;;4970396;28;20179;-74
2021/01/05 08:10:29;;;;;;;19.80;13.15;;;;;;;;;;4971512;28;20616;-74
2021/01/05 08:12:55;;;;;;;19.23;13.38;;;;;;;;;;4972199;28;20190;-74
2021/01/05 08:15:23;;;;;;;18.63;13.77;;;;;;;;;;4987641;28;20331;-74
2021/01/05 08:17:50;;;;;;;19.70;14.25;;;;;;;;;;4989353;28;20183;-74
2021/01/05 08:20:20;;;;;;;18.95;14.00;;;;;;;;;;4991324;28;20222;-74
2021/01/05 08:22:47;;;;;;;22.20;14.18;;;;;;;;;;4991435;28;20203;-73
2021/01/05 08:25:14;;;;;;;23.17;15.07;;;;;;;;;;4990944;28;20203;-73
2021/01/05 08:27:40;;;;;;;21.42;13.70;;;;;;;;;;4990537;28;20186;-74
2021/01/05 08:30:06;;;;;;;23.83;14.43;;;;;;;;;;4991096;28;20168;-73
2021/01/05 08:32:32;;;;;;;22.73;15.50;;;;;;;;;;4985313;28;20203;-73
2021/01/05 08:34:58;;;;;;;22.27;16.85;;;;;;;;;;4971662;28;20744;-73
2021/01/05 08:37:25;;;;;;;25.95;15.45;;;;;;;;;;4971143;28;20200;-75
2021/01/05 08:39:50;;;;;;;22.55;14.95;;;;;;;;;;4974373;28;20180;-74
2021/01/05 08:42:16;;;;;;;18.80;13.53;;;;;;;;;;4971602;28;20663;-74
2021/01/05 08:44:43;;;;;;;23.30;14.73;;;;;;;;;;4982709;28;20438;-74
2021/01/05 08:47:09;;;;;;;20.98;13.07;;;;;;;;;;4991030;28;20982;-73
2021/01/05 08:49:35;;;;;;;28.38;14.18;;;;;;;;;;4973580;28;20191;-75
2021/01/05 08:52:01;;;;;;;17.50;12.10;;;;;;;;;;4974548;28;20194;-75
2021/01/05 08:54:28;;;;;;;19.50;12.93;;;;;;;;;;4990564;28;20195;-75
2021/01/05 08:56:55;;;;;;;21.40;14.35;;;;;;;;;;4978217;28;20188;-75
2021/01/05 08:59:21;;;;;;;23.00;13.55;;;;;;;;;;4971473;28;20176;-74
2021/01/05 09:01:47;;;;;;;22.70;15.18;;;;;;;;;;4984412;28;20203;-74
2021/01/05 09:04:13;;;;;;;21.80;15.45;;;;;;;;;;4988961;28;20211;-74
2021/01/05 09:06:39;;;;;;;17.88;13.40;;;;;;;;;;4990788;28;20187;-74
2021/01/05 09:09:05;;;;;;;23.73;15.05;;;;;;;;;;4990925;28;20176;-74
2021/01/05 09:11:31;;;;;;;18.98;13.95;;;;;;;;;;4991101;28;20230;-74
2021/01/05 09:13:57;;;;;;;21.70;14.68;;;;;;;;;;4989322;28;20287;-74
2021/01/05 09:16:31;;;;;;;20.07;14.50;;;;;;;;;;4993332;28;20262;-75
2021/01/05 09:18:57;;;;;;;19.10;12.77;;;;;;;;;;4993261;28;20426;-76
2021/01/05 09:21:24;;;;;;;20.45;12.68;;;;;;;;;;4995630;28;20196;-76
2021/01/05 09:23:51;;;;;;;29.17;18.08;;;;;;;;;;4977857;28;20195;-77
2021/01/05 09:26:19;;;;;;;24.77;17.30;;;;;;;;;;4976425;28;20172;-77
2021/01/05 09:28:45;;;;;;;22.02;14.63;;;;;;;;;;4976828;28;20192;-77
2021/01/05 09:31:11;;;;;;;20.60;13.45;;;;;;;;;;4976462;28;20247;-76
2021/01/05 09:33:37;;;;;;;17.52;11.93;;;;;;;;;;4981519;28;20177;-77
2021/01/05 09:36:03;;;;;;;21.05;14.82;;;;;;;;;;4996293;23;20351;-77
2021/01/05 09:38:29;;;;;;;17.08;11.35;;;;;;;;;;4975063;28;20342;-77
2021/01/05 09:40:55;;;;;;;22.40;12.85;;;;;;;;;;4974854;28;20208;-77
2021/01/05 09:43:21;;;;;;;20.40;13.17;;;;;;;;;;4973928;28;20175;-76
2021/01/05 09:45:47;;;;;;;25.27;16.70;;;;;;;;;;4972721;28;20454;-77
2021/01/05 09:48:14;;;;;;;19.43;13.80;;;;;;;;;;4973445;28;20432;-75
2021/01/05 09:50:42;;;;;;;22.65;15.23;;;;;;;;;;4972110;28;20431;-77
2021/01/05 09:53:08;;;;;;;26.63;14.30;;;;;;;;;;4975344;28;20188;-77
2021/01/05 09:55:34;;;;;;;23.05;16.88;;;;;;;;;;4974916;28;20291;-77
2021/01/05 09:58:00;;;;;;;25.73;15.88;;;;;;;;;;4973805;28;20593;-76
2021/01/05 10:00:26;;;;;;;25.50;16.27;;;;;;;;;;4975396;28;20219;-77
2021/01/05 10:02:52;;;;;;;22.55;14.00;;;;;;;;;;4975317;28;20239;-77
2021/01/05 10:05:22;;;;;;;21.23;14.07;;;;;;;;;;4975515;28;20219;-76
2021/01/05 10:07:49;;;;;;;23.60;13.82;;;;;;;;;;4975554;28;20176;-77
2021/01/05 10:10:33;;;;;;;21.02;13.55;;;;;;;;;;4975623;28;20199;-77
2021/01/05 10:13:00;;;;;;;23.13;14.57;;;;;;;;;;4975550;28;20172;-77
2021/01/05 10:15:26;;;;;;;20.27;13.50;;;;;;;;;;4975247;28;20196;-77
2021/01/05 10:17:53;;;;;;;23.83;14.77;;;;;;;;;;4974952;28;20196;-77
2021/01/05 10:20:20;;;;;;;24.88;15.70;;;;;;;;;;4975205;28;20176;-76
2021/01/05 10:22:47;;;;;;;16.55;12.40;;;;;;;;;;4975391;28;20659;-77
2021/01/05 10:25:13;;;;;;;14.68;11.60;;;;;;;;;;4975094;28;20204;-77
2021/01/05 10:27:39;;;;;;;25.27;14.45;;;;;;;;;;4974148;28;20172;-76
2021/01/05 10:30:07;;;;;;;21.58;14.45;;;;;;;;;;4975569;28;20207;-76
2021/01/05 10:32:33;;;;;;;24.98;15.68;;;;;;;;;;4975351;28;20189;-77
2021/01/05 10:34:59;;;;;;;22.65;14.25;;;;;;;;;;4974517;28;20219;-77
2021/01/05 10:37:25;;;;;;;28.13;16.83;;;;;;;;;;4975148;28;20184;-77
2021/01/05 10:39:51;;;;;;;25.77;16.02;;;;;;;;;;4974849;28;20453;-77
2021/01/05 10:42:17;;;;;;;34.80;19.77;;;;;;;;;;4974590;28;20342;-76
2021/01/05 10:44:43;;;;;;;24.15;16.70;;;;;;;;;;4974347;28;20443;-77
2021/01/05 10:47:14;;;;;;;26.27;17.80;;;;;;;;;;4958614;28;20212;-76
2021/01/05 10:49:40;;;;;;;21.33;15.15;;;;;;;;;;4975215;28;20469;-77
2021/01/05 10:52:17;;;;;;;23.10;14.20;;;;;;;;;;4971560;28;20195;-76
2021/01/05 10:54:44;;;;;;;28.15;15.90;;;;;;;;;;4974494;28;20196;-77
2021/01/05 10:57:12;;;;;;;26.98;17.63;;;;;;;;;;4974644;28;20255;-77
2021/01/05 10:59:40;;;;;;;24.40;17.38;;;;;;;;;;4974958;28;20255;-76
2021/01/05 11:02:08;;;;;;;29.50;19.55;;;;;;;;;;4973859;28;20204;-75
2021/01/05 11:04:34;;;;;;;28.17;17.90;;;;;;;;;;4973577;28;20247;-76
2021/01/05 11:07:04;;;;;;;22.33;15.43;;;;;;;;;;4975197;28;20219;-76
2021/01/05 11:09:30;;;;;;;19.85;13.90;;;;;;;;;;4975042;28;20251;-76
2021/01/05 11:12:00;;;;;;;20.67;14.30;;;;;;;;;;4974990;28;20204;-77
2021/01/05 11:14:26;;;;;;;24.38;16.08;;;;;;;;;;4975518;28;20191;-78
2021/01/05 11:16:52;;;;;;;27.45;15.40;;;;;;;;;;4978105;28;20180;-77
2021/01/05 11:19:18;;;;;;;26.60;15.55;;;;;;;;;;4976249;28;20662;-77
2021/01/05 11:21:57;;;;;;;20.85;14.98;;;;;;;;;;4973192;28;20211;-77
2021/01/05 11:24:24;;;;;;;22.92;15.73;;;;;;;;;;4973409;28;20180;-77
2021/01/05 11:26:50;;;;;;;22.85;15.10;;;;;;;;;;4973998;28;20180;-76
2021/01/05 11:29:17;;;;;;;34.65;18.08;;;;;;;;;;4973748;28;20181;-76
2021/01/05 11:31:43;;;;;;;31.20;20.52;;;;;;;;;;4973510;28;21014;-77
2021/01/05 11:34:09;;;;;;;24.08;15.90;;;;;;;;;;4973430;28;20192;-77
2021/01/05 11:36:35;;;;;;;33.97;17.17;;;;;;;;;;4973601;28;20224;-76
2021/01/05 11:39:03;;;;;;;26.88;15.88;;;;;;;;;;4970566;28;20435;-76
2021/01/05 11:41:33;;;;;;;25.52;14.52;;;;;;;;;;4973281;28;20211;-76
2021/01/05 11:43:59;;;;;;;22.70;14.32;;;;;;;;;;4974061;28;20264;-75
2021/01/05 11:46:25;;;;;;;25.65;13.65;;;;;;;;;;4961924;28;20196;-76
2021/01/05 11:48:51;;;;;;;23.00;14.93;;;;;;;;;;4974085;28;20192;-77
2021/01/05 11:51:21;;;;;;;27.00;15.60;;;;;;;;;;4973311;28;20219;-77
2021/01/05 11:53:47;;;;;;;25.10;14.70;;;;;;;;;;4974535;28;20412;-77
2021/01/05 11:56:23;;;;;;;24.88;13.73;;;;;;;;;;4974407;28;20256;-76
2021/01/05 11:58:50;;;;;;;26.23;15.43;;;;;;;;;;4955582;28;20172;-77
2021/01/05 12:01:16;;;;;;;23.38;14.88;;;;;;;;;;4955813;28;20264;-77
2021/01/05 12:03:42;;;;;;;27.00;15.23;;;;;;;;;;4966128;28;20535;-77
2021/01/05 12:06:12;;;;;;;28.65;16.33;;;;;;;;;;4975775;28;20206;-77
2021/01/05 12:08:38;;;;;;;22.85;13.98;;;;;;;;;;4976349;28;20170;-77
2021/01/05 12:11:04;;;;;;;24.42;15.23;;;;;;;;;;4975264;28;20172;-77
2021/01/05 12:13:30;;;;;;;29.65;16.20;;;;;;;;;;4975934;28;20522;-77
2021/01/05 12:15:56;;;;;;;24.27;14.27;;;;;;;;;;4975942;28;20255;-77
2021/01/05 12:18:22;;;;;;;23.13;14.07;;;;;;;;;;4975769;28;20474;-76
2021/01/05 12:20:48;;;;;;;25.80;16.57;;;;;;;;;;4976195;28;20778;-77
2021/01/05 12:23:14;;;;;;;24.17;14.27;;;;;;;;;;4976296;28;20494;-76
2021/01/05 12:25:40;;;;;;;26.10;15.40;;;;;;;;;;4975937;28;20428;-77
2021/01/05 12:28:06;;;;;;;22.80;15.38;;;;;;;;;;4975904;28;20426;-77
2021/01/05 12:30:33;;;;;;;26.33;15.20;;;;;;;;;;4976116;28;20180;-76
2021/01/05 12:32:59;;;;;;;26.75;16.63;;;;;;;;;;4977032;28;20557;-75
2021/01/05 12:35:25;;;;;;;26.58;16.48;;;;;;;;;;4978159;28;20218;-77
2021/01/05 12:37:51;;;;;;;29.73;15.68;;;;;;;;;;4975435;28;20251;-77
2021/01/05 12:40:17;;;;;;;28.23;16.30;;;;;;;;;;4974931;28;20628;-77
2021/01/05 12:42:43;;;;;;;28.43;15.63;;;;;;;;;;4974691;28;20834;-76
2021/01/05 12:45:10;;;;;;;21.73;14.95;;;;;;;;;;4977024;28;20518;-78
2021/01/05 12:47:36;;;;;;;23.90;15.25;;;;;;;;;;4978091;28;20174;-77
2021/01/05 12:50:02;;;;;;;24.58;14.27;;;;;;;;;;4978196;28;20288;-78
2021/01/05 12:52:28;;;;;;;26.80;16.87;;;;;;;;;;4978154;28;20284;-77
2021/01/05 12:54:53;;;;;;;27.33;15.60;;;;;;;;;;4977602;28;20957;-77
2021/01/05 12:57:20;;;;;;;26.43;15.90;;;;;;;;;;4977962;28;20184;-77
2021/01/05 12:59:46;;;;;;;26.48;15.40;;;;;;;;;;4977505;28;20419;-77
2021/01/05 13:02:38;;;;;;;24.00;15.40;;;;;;;;;;4977306;28;20692;-77
2021/01/05 13:05:05;;;;;;;26.15;14.88;;;;;;;;;;4955964;28;20639;-77
2021/01/05 13:07:31;;;;;;;25.27;16.65;;;;;;;;;;4958179;28;20177;-76
2021/01/05 13:09:58;;;;;;;26.15;14.23;;;;;;;;;;4960118;28;20223;-77
2021/01/05 13:12:24;;;;;;;25.65;15.20;;;;;;;;;;4977505;28;20180;-77
2021/01/05 13:14:50;;;;;;;22.90;15.85;;;;;;;;;;4976548;28;20200;-77
2021/01/05 13:17:16;;;;;;;23.90;14.23;;;;;;;;;;4976847;28;20199;-77
2021/01/05 13:19:42;;;;;;;25.63;15.27;;;;;;;;;;4976194;28;20968;-77
2021/01/05 13:22:08;;;;;;;24.10;15.00;;;;;;;;;;4977256;28;20303;-77
2021/01/05 13:24:34;;;;;;;23.40;15.47;;;;;;;;;;4974972;28;20439;-77
2021/01/05 13:27:04;;;;;;;24.00;13.23;;;;;;;;;;4966367;28;20482;-77
2021/01/05 13:29:31;;;;;;;22.60;14.07;;;;;;;;;;4977193;28;20419;-77
2021/01/05 13:31:59;;;;;;;28.33;15.00;;;;;;;;;;4961180;28;20181;-76
2021/01/05 13:34:26;;;;;;;21.95;13.68;;;;;;;;;;4973200;28;20191;-77
2021/01/05 13:36:55;;;;;;;22.17;15.90;;;;;;;;;;4977422;28;20271;-76
2021/01/05 13:39:21;;;;;;;28.23;16.30;;;;;;;;;;4977427;28;20651;-75
2021/01/05 13:41:47;;;;;;;22.45;14.70;;;;;;;;;;4977179;28;20675;-76
2021/01/05 13:44:13;;;;;;;22.27;15.40;;;;;;;;;;4975845;28;20180;-77
2021/01/05 13:46:40;;;;;;;21.90;15.15;;;;;;;;;;4976244;28;20231;-76
2021/01/05 13:49:08;;;;;;;28.40;15.85;;;;;;;;;;4975038;28;20271;-76
2021/01/05 13:51:38;;;;;;;22.88;16.73;;;;;;;;;;4975899;28;20180;-76
2021/01/05 13:54:06;;;;;;;27.15;17.02;;;;;;;;;;4976540;28;20180;-79
2021/01/05 13:56:32;;;;;;;30.20;16.50;;;;;;;;;;4973053;28;20262;-76
2021/01/05 13:58:58;;;;;;;22.40;14.60;;;;;;;;;;4965987;28;20214;-76
2021/01/05 14:01:25;;;;;;;30.13;17.77;;;;;;;;;;4975694;28;20737;-77
2021/01/05 14:03:51;;;;;;;27.67;16.23;;;;;;;;;;4970056;28;20250;-77
2021/01/05 14:06:25;;;;;;;25.42;16.88;;;;;;;;;;4977743;28;20196;-78
2021/01/05 14:08:52;;;;;;;25.33;16.80;;;;;;;;;;4977858;28;20675;-77
2021/01/05 14:11:19;;;;;;;24.88;16.10;;;;;;;;;;4976785;28;20275;-77
2021/01/05 14:13:45;;;;;;;24.45;15.23;;;;;;;;;;4978452;28;20586;-77
2021/01/05 14:16:15;;;;;;;28.17;17.40;;;;;;;;;;4977960;28;20207;-77
2021/01/05 14:18:44;;;;;;;33.65;17.20;;;;;;;;;;4978408;28;20176;-78
2021/01/05 14:21:10;;;;;;;23.05;15.15;;;;;;;;;;4977914;28;20199;-77
2021/01/05 14:23:36;;;;;;;23.77;15.82;;;;;;;;;;4977618;28;20204;-77